Forside
METAR-TAF:

METAR-TAF

Lufthavne :

Alderney,

Breddekreds: 49-43N, længdekreds: 002-12W, højde: 71 m

Aktuelle vejr

Denne rapport blev lavet for 39 minutter siden, kl. 13:20 UTC
Vind 22 kt fra østnordøst
Temperatur 9°C
Fugtighed 66%
Tryk 1028 hPa
Sigt 10 km eller mere
Nogle få skyer i en højde af 1600 ft
Spredte skyer i en højde af 3500 ft
byger i nærheden

METAR: EGJA 311320Z 07022KT 9999 VCSH FEW016 SCT035 09/03 Q1028

Tid: 14:59 (13:59 UTC)

Vejrudsigter

Denne rapport blev lavet for 3 timer og 7 minutter siden, kl. 10:52 UTC
Foreløbig gælder fra 31 på 12 UTC til 31 på 21 UTC
Vind 18 kt fra østnordøst
Sigt 10 km eller mere
Nogle få skyer i en højde af 2000 ft
Sandsynlighed 30% :
Midlertidig
fra 31 på 12 UTC til 31 på 13 UTC
Sigt: 7000 m
Brudte skyer i en højde af 1500 ft
regnbyger

TAF: EGJA 311052Z 3112/3121 06018KT 9999 FEW020 PROB30 TEMPO 3112/3113 7000 SHRA BKN015

Vejrobservationer og prognoser fra mere end 4000 lufthavne (METAR og TAF).

De gule og røde prikker repræsenterer de meteorologiske stationer.

Flyt musen over at se navnet på stationen.

Så klik over at se vejr observationer og prognoser.

At skifte det kort: Klik på de grønne knapper med et sort kors for at zoome ind; på den grønne knap med en bindestreg for at zoome ud; eller på de grønne pile for tilstødende kort.


METAR-TAF: